Time;durP1;ratioP1;P1;durP2;ratioP2;P2;SDS_P1;SDS_P2;PMS_P1;PMS_P2;Temp;Humidity;BMP_temperature;BMP_pressure;BME280_temperature;BME280_humidity;BME280_pressure;Samples;Min_cycle;Max_cycle;Signal;HPM_P1;HPM_P2
2021/04/28 00:04:16;;;;;;;0.83;0.50;;;21.50;38.80;;;;;;10375003;28;20293;-18
2021/04/28 00:09:37;;;;;;;0.80;0.60;;;21.50;38.60;;;;;;10371651;28;20716;-15
2021/04/28 00:14:59;;;;;;;1.03;0.57;;;21.50;38.60;;;;;;10342256;28;20218;-16
2021/04/28 00:20:23;;;;;;;0.60;0.60;;;21.50;38.60;;;;;;10335941;28;20240;-18
2021/04/28 00:25:45;;;;;;;0.63;0.50;;;21.40;38.60;;;;;;10336572;28;20211;-16
2021/04/28 00:31:07;;;;;;;1.63;0.60;;;21.40;38.70;;;;;;10336485;28;20195;-17
2021/04/28 00:36:30;;;;;;;1.00;0.73;;;21.40;38.70;;;;;;10336611;28;20230;-15
2021/04/28 00:41:51;;;;;;;1.50;0.70;;;21.40;38.70;;;;;;10340244;28;20682;-15
2021/04/28 00:47:13;;;;;;;0.87;0.53;;;21.40;38.60;;;;;;10287939;28;20225;-13
2021/04/28 00:52:36;;;;;;;0.50;0.50;;;21.40;38.70;;;;;;10300550;28;20297;-19
2021/04/28 00:57:57;;;;;;;0.40;0.40;;;21.50;38.40;;;;;;10332780;28;20214;-19
2021/04/28 01:03:21;;;;;;;0.80;0.60;;;21.50;38.50;;;;;;10344098;28;20215;-16
2021/04/28 01:08:44;;;;;;;0.77;0.50;;;21.40;38.60;;;;;;10340871;28;20203;-16
2021/04/28 01:14:06;;;;;;;0.63;0.60;;;21.40;38.60;;;;;;10341571;28;20237;-15
2021/04/28 01:19:28;;;;;;;1.37;0.40;;;21.40;38.70;;;;;;10339983;28;20223;-15
2021/04/28 01:24:50;;;;;;;0.67;0.67;;;21.30;38.50;;;;;;10340641;28;20663;-19
2021/04/28 01:30:14;;;;;;;1.10;0.67;;;21.30;38.70;;;;;;10340603;28;20195;-18
2021/04/28 01:35:37;;;;;;;0.73;0.70;;;21.40;38.70;;;;;;10333532;28;20619;-15
2021/04/28 01:41:01;;;;;;;0.80;0.50;;;21.40;38.40;;;;;;10337834;28;20223;-20
2021/04/28 01:46:25;;;;;;;1.27;0.77;;;21.40;38.70;;;;;;10336453;28;20611;-15
2021/04/28 01:51:48;;;;;;;1.93;0.80;;;21.40;38.70;;;;;;10334016;28;20299;-17
2021/04/28 01:57:10;;;;;;;0.80;0.60;;;21.40;38.60;;;;;;10474266;23;20225;-16
2021/04/28 02:02:32;;;;;;;0.60;0.57;;;21.30;38.80;;;;;;10448916;28;20684;-15
2021/04/28 02:07:54;;;;;;;1.07;0.67;;;21.40;38.70;;;;;;10412052;28;20186;-16
2021/04/28 02:13:18;;;;;;;0.70;0.60;;;21.40;38.60;;;;;;10411245;28;20644;-15
2021/04/28 02:18:41;;;;;;;1.00;0.70;;;21.40;38.80;;;;;;10412100;28;20213;-18
2021/04/28 02:24:05;;;;;;;0.63;0.50;;;21.40;38.50;;;;;;10412152;28;20222;-16
2021/04/28 02:29:27;;;;;;;1.40;0.70;;;21.30;38.70;;;;;;10411593;28;20190;-16
2021/04/28 02:34:49;;;;;;;0.97;0.53;;;21.40;38.80;;;;;;10411753;28;20222;-16
2021/04/28 02:40:14;;;;;;;2.00;0.80;;;21.40;38.60;;;;;;10411343;28;20681;-15
2021/04/28 02:45:38;;;;;;;2.73;0.80;;;21.40;38.60;;;;;;10411048;28;20739;-16
2021/04/28 02:51:00;;;;;;;0.70;0.70;;;21.40;38.60;;;;;;10379626;28;20665;-16
2021/04/28 02:56:22;;;;;;;1.10;0.90;;;21.40;38.50;;;;;;10387275;28;20808;-15
2021/04/28 03:01:46;;;;;;;1.33;0.87;;;21.30;38.60;;;;;;10410495;28;20181;-15
2021/04/28 03:07:08;;;;;;;0.80;0.70;;;21.30;38.70;;;;;;10410420;28;20218;-17
2021/04/28 03:12:30;;;;;;;0.90;0.80;;;21.30;38.80;;;;;;10396174;28;20217;-17
2021/04/28 03:17:53;;;;;;;0.77;0.70;;;21.40;38.80;;;;;;10369141;28;20254;-16
2021/04/28 03:23:15;;;;;;;1.70;0.93;;;21.40;38.50;;;;;;10372172;28;20292;-15
2021/04/28 03:28:37;;;;;;;0.80;0.80;;;21.30;38.70;;;;;;10401202;28;20205;-16
2021/04/28 03:33:59;;;;;;;1.10;0.70;;;21.40;38.70;;;;;;10409786;28;20244;-15
2021/04/28 03:39:21;;;;;;;0.93;0.70;;;21.40;38.50;;;;;;10409297;28;20221;-16
2021/04/28 03:44:42;;;;;;;1.27;0.80;;;21.60;38.20;;;;;;10408698;28;20224;-16
2021/04/28 03:50:06;;;;;;;0.70;0.70;;;21.70;37.90;;;;;;10400169;28;20202;-16
2021/04/28 03:55:28;;;;;;;1.87;1.10;;;21.80;37.60;;;;;;10396614;28;20308;-16
2021/04/28 04:00:50;;;;;;;0.97;0.87;;;21.80;37.90;;;;;;10365001;28;20277;-16
2021/04/28 04:06:12;;;;;;;1.60;0.90;;;21.70;37.90;;;;;;10365972;28;20225;-15
2021/04/28 04:11:34;;;;;;;1.00;0.77;;;21.80;37.90;;;;;;10367450;28;20247;-16
2021/04/28 04:16:56;;;;;;;1.10;0.80;;;21.70;37.90;;;;;;10366832;28;20327;-16
2021/04/28 04:22:19;;;;;;;1.00;0.90;;;21.70;38.10;;;;;;10367300;28;20221;-15
2021/04/28 04:27:40;;;;;;;1.13;0.83;;;21.70;37.80;;;;;;10374542;28;20190;-16
2021/04/28 04:33:02;;;;;;;0.97;0.90;;;21.80;37.70;;;;;;10374916;28;20915;-15
2021/04/28 04:38:25;;;;;;;1.63;1.00;;;21.70;37.90;;;;;;10375477;28;20690;-16
2021/04/28 04:43:47;;;;;;;1.33;0.90;;;21.80;37.80;;;;;;10380775;28;20230;-15
2021/04/28 04:49:09;;;;;;;1.10;1.00;;;21.90;37.70;;;;;;10395206;28;20270;-15
2021/04/28 04:54:31;;;;;;;1.43;0.90;;;21.80;37.70;;;;;;10412632;28;20236;-15
2021/04/28 04:59:53;;;;;;;1.10;0.90;;;21.80;37.70;;;;;;10372197;28;20617;-14
2021/04/28 05:05:15;;;;;;;1.37;1.27;;;21.90;37.80;;;;;;10373417;28;20215;-15
2021/04/28 05:10:37;;;;;;;1.50;1.00;;;21.90;37.70;;;;;;10370885;28;20194;-15
2021/04/28 05:15:59;;;;;;;0.97;0.90;;;21.80;37.80;;;;;;10380444;28;20578;-16
2021/04/28 05:21:21;;;;;;;1.20;0.83;;;21.90;37.60;;;;;;10371869;28;20841;-16
2021/04/28 05:26:43;;;;;;;1.10;1.00;;;21.90;37.60;;;;;;10373247;28;20252;-16
2021/04/28 05:32:05;;;;;;;1.23;1.00;;;21.90;37.80;;;;;;10386057;28;20268;-16
2021/04/28 05:37:27;;;;;;;1.67;1.10;;;21.90;37.50;;;;;;10372137;28;20229;-16
2021/04/28 05:42:50;;;;;;;2.30;1.63;;;21.90;37.70;;;;;;10378405;28;20198;-17
2021/04/28 05:48:14;;;;;;;5.23;2.47;;;21.90;33.00;;;;;;10389824;28;20659;-16
2021/04/28 05:53:36;;;;;;;4.03;2.47;;;21.70;28.20;;;;;;10393377;28;20229;-15
2021/04/28 05:58:58;;;;;;;7.17;2.50;;;21.40;27.40;;;;;;10401691;28;20218;-16
2021/04/28 06:04:21;;;;;;;4.00;2.60;;;21.20;27.10;;;;;;10382273;28;20219;-16
2021/04/28 06:09:42;;;;;;;3.43;2.70;;;21.10;27.00;;;;;;10371428;28;20205;-16
2021/04/28 06:15:06;;;;;;;3.83;2.57;;;21.00;26.80;;;;;;10370804;28;20289;-15
2021/04/28 06:20:28;;;;;;;4.30;2.77;;;21.00;26.80;;;;;;10371204;28;20273;-16
2021/04/28 06:25:49;;;;;;;4.57;2.63;;;21.10;26.50;;;;;;10372607;28;20225;-15
2021/04/28 06:31:12;;;;;;;2.73;2.43;;;21.10;26.90;;;;;;10380541;28;20616;-15
2021/04/28 06:36:35;;;;;;;4.70;2.97;;;21.00;26.50;;;;;;10401274;28;20609;-16
2021/04/28 06:41:56;;;;;;;5.53;3.00;;;21.00;26.50;;;;;;10371870;28;20186;-16
2021/04/28 06:47:19;;;;;;;4.20;2.97;;;21.10;26.40;;;;;;10368540;28;20207;-14
2021/04/28 06:52:43;;;;;;;7.73;3.00;;;21.00;26.30;;;;;;10384898;28;20625;-16
2021/04/28 06:58:04;;;;;;;4.67;3.23;;;21.10;26.30;;;;;;10378409;28;20207;-15
2021/04/28 07:03:29;;;;;;;3.70;2.97;;;21.10;26.10;;;;;;10368568;28;20230;-16
2021/04/28 07:08:50;;;;;;;5.03;2.80;;;21.30;26.00;;;;;;10378703;28;20620;-16
2021/04/28 07:14:12;;;;;;;7.17;2.67;;;21.40;26.00;;;;;;10407551;28;20210;-16
2021/04/28 07:19:35;;;;;;;4.47;3.30;;;21.50;26.00;;;;;;10400838;28;20846;-17
2021/04/28 07:24:56;;;;;;;6.57;3.20;;;21.40;26.10;;;;;;10399773;28;20229;-16
2021/04/28 07:30:19;;;;;;;3.20;2.50;;;21.50;26.30;;;;;;10386227;28;20220;-15
2021/04/28 07:35:42;;;;;;;4.17;2.97;;;21.70;27.00;;;;;;10407706;28;20213;-15
2021/04/28 07:41:04;;;;;;;4.07;2.93;;;21.80;26.90;;;;;;10366717;28;20215;-17
2021/04/28 07:46:26;;;;;;;3.80;2.90;;;21.80;26.60;;;;;;10389484;28;20219;-16
2021/04/28 07:51:49;;;;;;;4.13;3.00;;;21.80;27.10;;;;;;10404258;28;20693;-15
2021/04/28 08:02:13;;;;;;;3.40;2.47;;;22.00;26.70;;;;;;10378101;28;20230;-14
2021/04/28 08:07:36;;;;;;;7.43;3.00;;;22.10;27.40;;;;;;10379715;28;20221;-14
2021/04/28 08:12:58;;;;;;;6.57;2.43;;;22.10;27.10;;;;;;10378762;28;20246;-15
2021/04/28 08:18:19;;;;;;;4.90;3.17;;;22.10;27.60;;;;;;10342661;28;20234;-13
2021/04/28 08:23:42;;;;;;;5.60;2.90;;;22.20;27.80;;;;;;10379030;28;20202;-16
2021/04/28 08:29:04;;;;;;;6.23;2.97;;;22.00;28.60;;;;;;10378915;28;20346;-16
2021/04/28 08:34:26;;;;;;;4.80;2.93;;;22.10;27.80;;;;;;10378551;28;20194;-13
2021/04/28 08:39:48;;;;;;;4.63;2.70;;;22.20;29.30;;;;;;10389763;28;20221;-14
2021/04/28 08:45:11;;;;;;;5.77;3.00;;;22.20;28.30;;;;;;10378880;28;20218;-13
2021/04/28 08:50:32;;;;;;;2.77;2.23;;;22.30;28.50;;;;;;10385663;28;20194;-14
2021/04/28 08:55:56;;;;;;;4.47;2.90;;;22.40;28.70;;;;;;10378301;28;20294;-15
2021/04/28 09:01:28;;;;;;;3.00;2.67;;;22.30;29.80;;;;;;10376683;28;20221;-17
2021/04/28 09:06:50;;;;;;;4.17;3.10;;;22.30;30.50;;;;;;10375780;28;20649;-16
2021/04/28 09:12:12;;;;;;;5.77;3.97;;;22.30;28.90;;;;;;10346758;28;20581;-17
2021/04/28 09:17:50;;;;;;;6.70;4.40;;;22.30;27.10;;;;;;10366235;28;20342;-16
2021/04/28 09:23:14;;;;;;;5.10;4.00;;;22.40;25.60;;;;;;10368814;28;20241;-13
2021/04/28 09:28:37;;;;;;;5.10;3.90;;;22.30;26.30;;;;;;10379114;28;20210;-17
2021/04/28 09:33:59;;;;;;;4.80;4.17;;;22.30;26.00;;;;;;10377419;28;20202;-13
2021/04/28 09:39:21;;;;;;;5.73;4.33;;;22.20;25.60;;;;;;10392226;28;20218;-15
2021/04/28 09:44:48;;;;;;;6.50;4.60;;;22.20;25.20;;;;;;10416264;28;20202;-13
2021/04/28 09:50:13;;;;;;;5.67;4.60;;;22.10;25.50;;;;;;10416106;28;20251;-15
2021/04/28 09:55:45;;;;;;;6.57;5.00;;;22.00;25.50;;;;;;10395432;28;20234;-13
2021/04/28 10:01:08;;;;;;;7.77;4.70;;;22.10;25.00;;;;;;10354904;28;20229;-16
2021/04/28 10:06:43;;;;;;;5.47;4.93;;;22.00;25.50;;;;;;10346118;28;20254;-13
2021/04/28 10:12:07;;;;;;;6.47;4.87;;;22.00;25.70;;;;;;10335428;28;20191;-13
2021/04/28 10:17:31;;;;;;;7.93;6.00;;;22.00;26.20;;;;;;10346675;28;20532;-14
2021/04/28 10:22:53;;;;;;;6.43;5.13;;;22.00;25.40;;;;;;10414707;28;20205;-16
2021/04/28 10:28:16;;;;;;;7.87;4.93;;;21.90;26.00;;;;;;10390461;28;20225;-16
2021/04/28 10:33:40;;;;;;;7.53;5.30;;;21.90;25.80;;;;;;10396583;28;20716;-13
2021/04/28 10:39:02;;;;;;;5.33;4.50;;;22.00;26.00;;;;;;10402680;28;20218;-16
2021/04/28 10:44:40;;;;;;;8.83;5.40;;;21.90;26.60;;;;;;10397559;28;20203;-16
2021/04/28 10:50:22;;;;;;;7.43;4.80;;;22.00;25.50;;;;;;10350418;28;20242;-16
2021/04/28 10:55:53;;;;;;;5.67;3.97;;;21.90;27.50;;;;;;10343406;28;20245;-13
2021/04/28 11:01:32;;;;;;;8.10;4.47;;;21.90;27.60;;;;;;10371175;28;20225;-16
2021/04/28 11:06:54;;;;;;;4.57;4.10;;;21.90;27.70;;;;;;10373036;28;20705;-14
2021/04/28 11:12:16;;;;;;;4.90;3.87;;;21.90;28.40;;;;;;10371386;28;20195;-16
2021/04/28 11:17:37;;;;;;;5.67;4.23;;;21.80;28.80;;;;;;10373029;28;20225;-16
2021/04/28 11:23:21;;;;;;;7.03;4.07;;;21.90;28.30;;;;;;10372213;28;20670;-15
2021/04/28 11:28:48;;;;;;;6.40;4.43;;;21.70;28.50;;;;;;10371669;28;20221;-15
2021/04/28 11:34:32;;;;;;;6.67;4.13;;;21.80;28.30;;;;;;10346332;28;20713;-16
2021/04/28 11:39:56;;;;;;;5.87;4.93;;;21.80;28.30;;;;;;10375091;28;20296;-13
2021/04/28 11:45:17;;;;;;;6.03;3.90;;;21.70;28.40;;;;;;10406927;28;20228;-16
2021/04/28 11:50:51;;;;;;;5.93;4.37;;;21.60;29.70;;;;;;10409348;28;20247;-14
2021/04/28 11:56:31;;;;;;;7.17;4.60;;;21.70;29.60;;;;;;10395560;28;20206;-13
2021/04/28 12:01:56;;;;;;;6.27;4.60;;;21.70;28.90;;;;;;10369254;28;20214;-17
2021/04/28 12:07:19;;;;;;;9.97;4.93;;;21.60;29.50;;;;;;10370450;28;20230;-15
2021/04/28 12:12:42;;;;;;;5.90;4.77;;;21.60;28.40;;;;;;10363816;28;20209;-14
2021/04/28 12:18:04;;;;;;;7.40;4.47;;;21.70;29.20;;;;;;10371388;28;20218;-16
2021/04/28 12:23:26;;;;;;;7.30;5.57;;;21.50;29.20;;;;;;10367812;28;20226;-17
2021/04/28 12:28:51;;;;;;;9.37;5.53;;;21.40;28.30;;;;;;10371173;28;20678;-16
2021/04/28 12:34:17;;;;;;;8.13;6.50;;;21.30;28.80;;;;;;10371630;28;20674;-15
2021/04/28 12:39:39;;;;;;;7.07;5.17;;;21.40;28.10;;;;;;10381420;28;20241;-15
2021/04/28 12:45:08;;;;;;;10.10;5.70;;;21.30;28.90;;;;;;10372191;28;20242;-15
2021/04/28 12:50:33;;;;;;;9.67;5.27;;;21.30;28.70;;;;;;10375498;28;20241;-13
2021/04/28 12:55:57;;;;;;;8.10;6.20;;;21.30;28.20;;;;;;10373684;28;20584;-13
2021/04/28 13:01:21;;;;;;;8.00;4.97;;;21.30;28.10;;;;;;10341660;28;20219;-15
2021/04/28 13:06:43;;;;;;;6.57;5.30;;;21.20;28.00;;;;;;10333358;28;20230;-12
2021/04/28 13:12:05;;;;;;;7.57;6.27;;;21.20;28.50;;;;;;10325399;28;20191;-15
2021/04/28 13:17:28;;;;;;;11.03;6.13;;;21.20;27.90;;;;;;10334610;28;20226;-17
2021/04/28 13:22:49;;;;;;;9.10;6.47;;;21.30;28.50;;;;;;10333314;28;20223;-14
2021/04/28 13:28:30;;;;;;;7.17;5.93;;;21.20;28.60;;;;;;10302903;28;20224;-14
2021/04/28 13:33:54;;;;;;;11.10;7.90;;;21.30;30.20;;;;;;10316304;28;20210;-15
2021/04/28 13:39:26;;;;;;;12.80;8.57;;;21.10;28.90;;;;;;10334272;28;20740;-15
2021/04/28 13:44:48;;;;;;;8.73;6.43;;;21.10;28.70;;;;;;10331806;28;20207;-14
2021/04/28 13:50:12;;;;;;;10.00;6.33;;;21.10;28.40;;;;;;10323033;28;20203;-12
2021/04/28 13:55:34;;;;;;;6.00;5.20;;;21.00;28.20;;;;;;10335716;28;20242;-14
2021/04/28 14:00:55;;;;;;;7.23;5.13;;;21.20;28.50;;;;;;10352796;28;20700;-15
2021/04/28 14:06:19;;;;;;;11.07;7.53;;;21.20;28.70;;;;;;10352012;28;20215;-14
2021/04/28 14:11:43;;;;;;;20.87;15.47;;;21.10;28.50;;;;;;10333948;28;20289;-12
2021/04/28 14:17:05;;;;;;;20.30;12.90;;;21.10;28.40;;;;;;10330971;28;20222;-16
2021/04/28 14:22:29;;;;;;;16.57;11.50;;;21.20;29.40;;;;;;10332656;28;20227;-16
2021/04/28 14:27:52;;;;;;;15.33;10.27;;;21.20;30.60;;;;;;10333939;28;20592;-14
2021/04/28 14:33:13;;;;;;;12.53;8.70;;;21.20;31.30;;;;;;10338247;28;21057;-17
2021/04/28 14:38:36;;;;;;;13.67;9.00;;;21.30;31.70;;;;;;10376843;28;20218;-18
2021/04/28 14:43:57;;;;;;;14.03;10.10;;;21.40;31.20;;;;;;10379121;28;20199;-15
2021/04/28 14:49:19;;;;;;;14.53;10.33;;;21.40;30.50;;;;;;10375671;28;20265;-17
2021/04/28 14:54:42;;;;;;;16.27;12.07;;;21.40;30.30;;;;;;10370357;28;20206;-14
2021/04/28 15:00:05;;;;;;;14.77;11.03;;;21.20;29.40;;;;;;10365033;28;20227;-14
2021/04/28 15:05:27;;;;;;;14.53;8.97;;;21.40;30.30;;;;;;10337289;28;20691;-15
2021/04/28 15:10:50;;;;;;;10.27;7.57;;;21.30;29.30;;;;;;10334180;28;20198;-15
2021/04/28 15:16:11;;;;;;;11.27;7.77;;;21.40;27.70;;;;;;10330473;28;20278;-15
2021/04/28 15:21:34;;;;;;;10.97;8.13;;;21.40;29.20;;;;;;10331957;28;20223;-13
2021/04/28 15:26:57;;;;;;;10.27;7.27;;;21.50;28.30;;;;;;10332248;28;20219;-13
2021/04/28 15:32:18;;;;;;;9.37;7.17;;;21.50;30.40;;;;;;10350836;28;20199;-14
2021/04/28 15:37:40;;;;;;;9.40;6.80;;;21.50;29.60;;;;;;10320398;28;20729;-15
2021/04/28 15:43:02;;;;;;;9.40;6.60;;;21.50;29.30;;;;;;10350757;28;20229;-16
2021/04/28 15:48:24;;;;;;;12.67;6.40;;;21.30;29.70;;;;;;10331799;28;20232;-17
2021/04/28 15:53:45;;;;;;;8.70;5.93;;;21.40;29.60;;;;;;10305964;28;20198;-17
2021/04/28 15:59:08;;;;;;;9.07;5.23;;;21.20;28.90;;;;;;10334181;28;20602;-17
2021/04/28 16:04:29;;;;;;;7.20;4.60;;;21.10;28.70;;;;;;10331865;28;20713;-16
2021/04/28 16:09:51;;;;;;;5.13;4.03;;;21.20;29.20;;;;;;10354213;28;20566;-17
2021/04/28 16:15:15;;;;;;;5.37;3.70;;;21.30;30.40;;;;;;10332516;28;20222;-13
2021/04/28 16:20:37;;;;;;;5.50;3.60;;;21.40;29.50;;;;;;10336649;28;20223;-16
2021/04/28 16:25:58;;;;;;;7.73;3.40;;;21.30;28.50;;;;;;10355782;28;20765;-14
2021/04/28 16:31:21;;;;;;;4.67;3.40;;;21.40;30.20;;;;;;10378982;28;20190;-13
2021/04/28 16:36:43;;;;;;;5.97;3.37;;;21.30;30.80;;;;;;10382410;28;20350;-14
2021/04/28 16:42:06;;;;;;;7.47;3.40;;;21.40;28.40;;;;;;10367155;28;20218;-15
2021/04/28 16:47:28;;;;;;;7.00;3.10;;;21.40;28.60;;;;;;10375952;28;20233;-16
2021/04/28 16:52:50;;;;;;;6.37;3.53;;;21.30;28.70;;;;;;10373606;28;21018;-13
2021/04/28 16:58:11;;;;;;;4.67;3.17;;;22.40;28.00;;;;;;10368676;28;20234;-15
2021/04/28 17:03:34;;;;;;;6.83;2.97;;;21.80;28.50;;;;;;10378870;28;20620;-16
2021/04/28 17:08:55;;;;;;;5.07;3.37;;;21.50;28.50;;;;;;10387331;28;20273;-17
2021/04/28 17:14:17;;;;;;;5.10;3.33;;;21.50;29.10;;;;;;10375641;28;20704;-13
2021/04/28 17:19:42;;;;;;;4.90;3.13;;;21.60;29.30;;;;;;10375500;28;20225;-17
2021/04/28 17:25:04;;;;;;;5.67;3.23;;;21.50;29.70;;;;;;10375270;28;20241;-15
2021/04/28 17:30:26;;;;;;;4.73;3.33;;;21.40;30.00;;;;;;10374477;28;20584;-13
2021/04/28 17:35:49;;;;;;;5.07;3.23;;;21.50;30.00;;;;;;10377642;28;20214;-14
2021/04/28 17:41:10;;;;;;;7.37;3.50;;;21.40;29.60;;;;;;10399960;28;20213;-16
2021/04/28 17:46:33;;;;;;;4.87;3.63;;;21.40;29.40;;;;;;10419180;28;20704;-17
2021/04/28 17:51:55;;;;;;;5.97;3.50;;;21.40;29.50;;;;;;10418377;28;20220;-14
2021/04/28 17:57:16;;;;;;;3.67;3.00;;;21.40;30.20;;;;;;10379978;28;20624;-15
2021/04/28 18:02:38;;;;;;;5.20;3.53;;;21.40;30.00;;;;;;10334856;28;20218;-13
2021/04/28 18:08:01;;;;;;;10.03;3.80;;;21.30;30.00;;;;;;10334303;28;20215;-14
2021/04/28 18:13:23;;;;;;;5.30;3.97;;;21.10;29.80;;;;;;10334238;28;20286;-17
2021/04/28 18:18:45;;;;;;;6.57;3.20;;;21.40;30.20;;;;;;10332789;28;20817;-14
2021/04/28 18:24:08;;;;;;;5.27;3.13;;;21.40;30.70;;;;;;10335376;28;20199;-16
2021/04/28 18:29:30;;;;;;;5.00;3.97;;;21.30;30.20;;;;;;10333245;28;20242;-15
2021/04/28 18:34:52;;;;;;;7.03;4.00;;;21.10;29.70;;;;;;10332250;28;20195;-17
2021/04/28 18:40:16;;;;;;;3.63;2.90;;;21.10;29.80;;;;;;10337973;28;20215;-13
2021/04/28 18:45:42;;;;;;;3.47;2.60;;;21.30;31.30;;;;;;10329768;28;20227;-18
2021/04/28 18:51:04;;;;;;;4.57;2.50;;;21.40;32.20;;;;;;10326429;28;20198;-17
2021/04/28 18:56:27;;;;;;;3.23;2.27;;;21.60;32.50;;;;;;10333212;28;20215;-17
2021/04/28 19:01:48;;;;;;;3.47;2.10;;;21.50;32.90;;;;;;10373079;28;20221;-16
2021/04/28 19:07:10;;;;;;;2.83;2.50;;;21.40;33.10;;;;;;10353390;28;20219;-16
2021/04/28 19:12:37;;;;;;;3.47;2.20;;;21.40;33.40;;;;;;10369951;28;20197;-15
2021/04/28 19:17:59;;;;;;;2.67;2.00;;;21.40;34.20;;;;;;10369841;28;20217;-16
2021/04/28 19:23:20;;;;;;;2.40;1.80;;;21.50;34.40;;;;;;10373470;28;20195;-16
2021/04/28 19:28:43;;;;;;;3.20;1.90;;;21.50;34.30;;;;;;10370166;28;20214;-16
2021/04/28 19:34:05;;;;;;;2.73;1.60;;;21.60;34.50;;;;;;10371564;28;20199;-15
2021/04/28 19:39:26;;;;;;;3.73;2.00;;;21.50;34.70;;;;;;10370604;28;20770;-17
2021/04/28 19:44:49;;;;;;;3.80;2.03;;;21.60;34.80;;;;;;10369492;28;20210;-16
2021/04/28 19:50:12;;;;;;;2.33;1.70;;;21.40;34.90;;;;;;10365301;28;20190;-17
2021/04/28 19:55:34;;;;;;;2.27;1.83;;;21.50;35.00;;;;;;10370387;28;20237;-17
2021/04/28 20:00:56;;;;;;;5.17;2.07;;;21.50;34.90;;;;;;10370146;28;20301;-13
2021/04/28 20:06:18;;;;;;;2.17;1.97;;;21.50;35.30;;;;;;10371681;28;20601;-16
2021/04/28 20:11:39;;;;;;;3.93;1.73;;;21.50;35.50;;;;;;10370880;28;20609;-16
2021/04/28 20:17:02;;;;;;;2.00;1.70;;;21.50;35.60;;;;;;10371158;28;20244;-13
2021/04/28 20:22:23;;;;;;;2.40;1.73;;;21.40;35.90;;;;;;10369715;28;20606;-14
2021/04/28 20:27:46;;;;;;;2.43;1.90;;;21.40;36.00;;;;;;10404776;23;20273;-19
2021/04/28 20:33:10;;;;;;;2.03;1.50;;;21.40;35.90;;;;;;10396685;28;20195;-18
2021/04/28 20:38:31;;;;;;;2.20;1.90;;;21.30;36.20;;;;;;10400837;28;20210;-19
2021/04/28 20:43:53;;;;;;;3.03;1.50;;;21.40;36.10;;;;;;10372216;28;20581;-18
2021/04/28 20:49:15;;;;;;;2.10;1.80;;;21.40;36.40;;;;;;10371869;28;20210;-15
2021/04/28 20:54:37;;;;;;;1.87;1.70;;;21.30;36.50;;;;;;10410192;28;20228;-16
2021/04/28 20:59:59;;;;;;;2.83;1.83;;;21.40;36.60;;;;;;10369805;28;20215;-19
2021/04/28 21:05:21;;;;;;;2.00;1.80;;;21.40;36.60;;;;;;10366524;28;20210;-14
2021/04/28 21:10:43;;;;;;;2.37;1.67;;;21.40;36.50;;;;;;10392472;28;20199;-16
2021/04/28 21:16:05;;;;;;;1.53;1.43;;;21.30;36.70;;;;;;10377622;28;20218;-20
2021/04/28 21:21:28;;;;;;;2.00;1.67;;;21.40;36.60;;;;;;10376765;28;20214;-19
2021/04/28 21:26:50;;;;;;;1.93;1.70;;;21.30;36.70;;;;;;10384870;28;20226;-19
2021/04/28 21:32:12;;;;;;;1.73;1.63;;;21.20;36.60;;;;;;10365880;28;20199;-19
2021/04/28 21:37:36;;;;;;;2.47;1.87;;;21.20;36.90;;;;;;10408119;28;20640;-18
2021/04/28 21:42:57;;;;;;;1.87;1.70;;;21.20;36.90;;;;;;10379100;28;20221;-15
2021/04/28 21:48:19;;;;;;;2.53;1.77;;;21.30;37.00;;;;;;10412001;28;20214;-19
2021/04/28 21:53:42;;;;;;;2.27;1.70;;;21.10;36.90;;;;;;10418930;28;20198;-18
2021/04/28 21:59:04;;;;;;;6.87;1.73;;;21.20;37.10;;;;;;10375426;28;20262;-18
2021/04/28 22:04:25;;;;;;;2.13;1.60;;;21.20;36.90;;;;;;10380163;28;20195;-18
2021/04/28 22:09:48;;;;;;;1.53;1.40;;;21.20;36.80;;;;;;10377367;28;20197;-20
2021/04/28 22:15:11;;;;;;;2.07;1.80;;;21.10;37.20;;;;;;10377380;28;20850;-20
2021/04/28 22:20:34;;;;;;;1.97;1.60;;;21.10;37.20;;;;;;10409537;28;20266;-15
2021/04/28 22:25:57;;;;;;;1.70;1.60;;;21.10;37.40;;;;;;10394131;28;20227;-16
2021/04/28 22:31:20;;;;;;;2.97;1.90;;;21.00;37.40;;;;;;10410165;28;20201;-17
2021/04/28 22:36:41;;;;;;;2.93;1.87;;;21.10;37.60;;;;;;10371782;28;20277;-19
2021/04/28 22:42:04;;;;;;;2.67;1.70;;;21.10;37.60;;;;;;10404498;28;20226;-18
2021/04/28 22:47:26;;;;;;;2.20;1.70;;;21.10;37.50;;;;;;10376152;28;20214;-18
2021/04/28 22:52:47;;;;;;;1.77;1.40;;;21.00;38.10;;;;;;10373787;28;20194;-20
2021/04/28 22:58:10;;;;;;;1.83;1.67;;;21.10;37.50;;;;;;10368447;28;20222;-18
2021/04/28 23:03:32;;;;;;;1.70;1.60;;;21.10;37.80;;;;;;10375456;28;20195;-18
2021/04/28 23:08:53;;;;;;;2.03;1.87;;;21.10;37.80;;;;;;10374684;28;20214;-18
2021/04/28 23:14:16;;;;;;;2.20;1.67;;;21.00;38.00;;;;;;10369031;28;20642;-16
2021/04/28 23:19:37;;;;;;;1.57;1.40;;;21.10;37.90;;;;;;10372014;28;20214;-17
2021/04/28 23:24:59;;;;;;;2.63;1.83;;;20.90;38.00;;;;;;10374461;28;20225;-18
2021/04/28 23:30:21;;;;;;;1.87;1.57;;;20.90;38.30;;;;;;10371128;28;20733;-18
2021/04/28 23:35:43;;;;;;;1.70;1.57;;;21.00;38.20;;;;;;10376598;28;20214;-18
2021/04/28 23:41:05;;;;;;;1.80;1.70;;;21.00;38.40;;;;;;10377172;28;20214;-17
2021/04/28 23:46:27;;;;;;;2.17;1.73;;;21.00;38.60;;;;;;10375401;28;20693;-17
2021/04/28 23:51:49;;;;;;;1.87;1.70;;;20.90;38.60;;;;;;10374295;28;20202;-14
2021/04/28 23:57:11;;;;;;;2.10;1.40;;;20.90;38.80;;;;;;10372932;28;20214;-19
